createdAt,value
2019-03-10T00:01:49.535Z,5.99
2019-03-10T00:04:20.088Z,5.98
2019-03-10T00:06:50.597Z,6.02
2019-03-10T00:09:21.050Z,6.04
2019-03-10T00:11:51.647Z,6.02
2019-03-10T00:14:22.312Z,6.03
2019-03-10T00:17:00.430Z,6.03
2019-03-10T00:19:30.659Z,6.00
2019-03-10T00:22:00.872Z,6.00
2019-03-10T00:24:31.698Z,6.01
2019-03-10T00:27:04.246Z,6.01
2019-03-10T00:29:34.614Z,6.00
2019-03-10T00:32:05.124Z,5.96
2019-03-10T00:34:35.792Z,5.93
2019-03-10T00:37:06.343Z,5.90
2019-03-10T00:40:16.545Z,5.92
2019-03-10T00:43:57.642Z,5.92
2019-03-10T00:47:34.161Z,5.97
2019-03-10T00:50:31.973Z,5.98
2019-03-10T00:53:02.825Z,5.97
2019-03-10T00:55:33.013Z,5.98
2019-03-10T00:58:03.278Z,5.96
2019-03-10T01:00:33.791Z,5.95
2019-03-10T01:03:03.931Z,5.91
2019-03-10T01:05:34.484Z,5.89
2019-03-10T01:08:04.702Z,5.89
2019-03-10T01:10:35.257Z,5.83
2019-03-10T01:13:05.491Z,5.82
2019-03-10T01:15:36.408Z,5.78
2019-03-10T01:18:06.722Z,5.77
2019-03-10T01:20:36.905Z,5.76
2019-03-10T01:23:07.167Z,5.77
2019-03-10T01:25:37.387Z,5.75
2019-03-10T01:28:10.722Z,5.73
2019-03-10T01:30:57.031Z,5.73
2019-03-10T01:34:04.711Z,5.72
2019-03-10T01:36:33.472Z,5.75
2019-03-10T01:39:05.846Z,5.75
2019-03-10T01:41:36.034Z,5.70
2019-03-10T01:44:06.218Z,5.63
2019-03-10T01:46:37.223Z,5.55
2019-03-10T01:49:07.588Z,5.47
2019-03-10T01:51:38.764Z,5.43
2019-03-10T01:54:08.949Z,5.41
2019-03-10T01:56:39.138Z,5.39
2019-03-10T01:59:09.325Z,5.36
2019-03-10T02:01:39.730Z,5.34
2019-03-10T02:04:09.908Z,5.32
2019-03-10T02:06:40.467Z,5.34
2019-03-10T02:09:11.277Z,5.34
2019-03-10T02:11:41.436Z,5.35
2019-03-10T02:14:12.105Z,5.37
2019-03-10T02:16:42.270Z,5.37
2019-03-10T02:19:12.709Z,5.38
2019-03-10T02:21:43.250Z,5.38
2019-03-10T02:24:23.387Z,5.39
2019-03-10T02:26:46.414Z,5.40
2019-03-10T02:29:16.899Z,5.41
2019-03-10T02:31:47.393Z,5.44
2019-03-10T02:34:17.890Z,5.46
2019-03-10T02:36:48.371Z,5.49
2019-03-10T02:39:18.602Z,5.50
2019-03-10T02:41:49.106Z,5.50
2019-03-10T02:44:19.333Z,5.50
2019-03-10T02:46:49.841Z,5.50
2019-03-10T02:49:20.411Z,5.49
2019-03-10T02:51:50.622Z,5.47
2019-03-10T02:54:20.832Z,5.45
2019-03-10T02:56:51.589Z,5.43
2019-03-10T02:59:21.719Z,5.42
2019-03-10T03:01:52.284Z,5.41
2019-03-10T03:04:22.469Z,5.42
2019-03-10T03:06:52.956Z,5.38
2019-03-10T03:09:23.190Z,5.37
2019-03-10T03:11:53.850Z,5.35
2019-03-10T03:14:24.090Z,5.34
2019-03-10T03:16:54.600Z,5.34
2019-03-10T03:19:25.049Z,5.32
2019-03-10T03:21:55.316Z,5.32
2019-03-10T03:24:25.841Z,5.30
2019-03-10T03:26:56.159Z,5.29
2019-03-10T03:29:26.316Z,5.26
2019-03-10T03:31:56.602Z,5.27
2019-03-10T03:34:26.825Z,5.26
2019-03-10T03:36:57.001Z,5.24
2019-03-10T03:39:32.948Z,5.23
2019-03-10T03:42:03.257Z,5.22
2019-03-10T03:44:33.632Z,5.20
2019-03-10T03:47:04.485Z,5.19
2019-03-10T03:49:35.147Z,5.20
2019-03-10T03:52:05.481Z,5.16
2019-03-10T03:54:35.699Z,5.14
2019-03-10T03:57:05.969Z,5.12
2019-03-10T03:59:36.698Z,5.12
2019-03-10T04:02:11.912Z,5.13
2019-03-10T04:04:42.246Z,5.11
2019-03-10T04:07:12.446Z,5.08
2019-03-10T04:09:42.647Z,5.07
2019-03-10T04:12:13.000Z,5.06
2019-03-10T04:14:44.050Z,5.04
2019-03-10T04:17:14.320Z,5.06
2019-03-10T04:19:44.995Z,5.05
2019-03-10T04:22:15.460Z,5.03
2019-03-10T04:24:45.639Z,5.02
2019-03-10T04:27:17.252Z,5.04
2019-03-10T04:29:47.420Z,5.03
2019-03-10T04:32:17.631Z,5.03
2019-03-10T04:34:48.126Z,5.02
2019-03-10T04:37:18.314Z,5.01
2019-03-10T04:39:48.844Z,5.00
2019-03-10T04:42:19.065Z,4.99
2019-03-10T04:44:49.250Z,4.96
2019-03-10T04:47:19.418Z,4.94
2019-03-10T04:49:49.641Z,4.94
2019-03-10T04:52:20.454Z,4.94
2019-03-10T04:55:08.552Z,4.93
2019-03-10T04:57:45.721Z,4.93
2019-03-10T05:00:16.214Z,4.90
2019-03-10T05:02:46.404Z,4.90
2019-03-10T05:05:16.848Z,4.90
2019-03-10T05:07:48.176Z,4.89
2019-03-10T05:10:19.400Z,4.87
2019-03-10T05:12:50.332Z,4.88
2019-03-10T05:15:20.490Z,4.89
2019-03-10T05:17:50.641Z,4.87
2019-03-10T05:20:22.114Z,4.88
2019-03-10T05:22:52.697Z,4.88
2019-03-10T05:25:22.881Z,4.87
2019-03-10T05:27:53.786Z,4.86
2019-03-10T05:30:24.411Z,4.83
2019-03-10T05:32:54.840Z,4.84
2019-03-10T05:35:25.454Z,4.85
2019-03-10T05:37:55.710Z,4.88
2019-03-10T05:40:25.883Z,4.89
2019-03-10T05:42:56.102Z,4.87
2019-03-10T05:45:26.303Z,4.85
2019-03-10T05:47:56.752Z,4.86
2019-03-10T05:50:26.949Z,4.84
2019-03-10T05:52:57.125Z,4.84
2019-03-10T05:55:27.902Z,4.83
2019-03-10T05:57:58.110Z,4.82
2019-03-10T06:00:28.866Z,4.81
2019-03-10T06:02:59.110Z,4.79
2019-03-10T06:05:29.410Z,4.81
2019-03-10T06:07:59.956Z,4.80
2019-03-10T06:10:30.357Z,4.82
2019-03-10T06:13:00.684Z,4.85
2019-03-10T06:15:31.214Z,4.84
2019-03-10T06:18:01.424Z,4.88
2019-03-10T06:20:31.718Z,4.91
2019-03-10T06:23:01.996Z,4.96
2019-03-10T06:25:34.995Z,4.97
2019-03-10T06:28:04.211Z,4.97
2019-03-10T06:30:34.616Z,4.98
2019-03-10T06:33:05.225Z,4.99
2019-03-10T06:35:35.736Z,4.98
2019-03-10T06:38:06.085Z,4.98
2019-03-10T06:40:36.263Z,4.98
2019-03-10T06:43:07.144Z,5.00
2019-03-10T06:45:37.979Z,5.00
2019-03-10T06:48:08.222Z,5.04
2019-03-10T06:50:38.701Z,5.10
2019-03-10T06:53:08.851Z,5.16
2019-03-10T06:55:39.153Z,5.18
2019-03-10T06:58:11.030Z,5.26
2019-03-10T07:00:41.612Z,5.32
2019-03-10T07:03:11.806Z,5.36
2019-03-10T07:05:42.587Z,5.40
2019-03-10T07:08:13.136Z,5.44
2019-03-10T07:10:43.689Z,5.47
2019-03-10T07:13:15.259Z,5.48
2019-03-10T07:15:45.478Z,5.53
2019-03-10T07:18:16.186Z,5.57
2019-03-10T07:20:46.441Z,5.60
2019-03-10T07:23:18.101Z,5.65
2019-03-10T07:26:05.283Z,5.68
2019-03-10T07:29:00.884Z,5.74
2019-03-10T07:32:09.096Z,5.76
2019-03-10T07:34:58.412Z,5.80
2019-03-10T07:37:53.800Z,5.83
2019-03-10T07:40:51.139Z,5.82
2019-03-10T07:43:39.327Z,5.82
2019-03-10T07:46:24.473Z,5.88
2019-03-10T07:49:12.297Z,5.96
2019-03-10T07:52:19.781Z,6.07
2019-03-10T07:55:10.269Z,6.08
2019-03-10T07:58:06.730Z,6.22
2019-03-10T08:00:53.687Z,6.41
2019-03-10T08:03:39.446Z,6.57
2019-03-10T08:06:27.019Z,6.64
2019-03-10T08:09:06.993Z,6.68
2019-03-10T08:11:59.516Z,6.74
2019-03-10T08:14:40.460Z,6.78
2019-03-10T08:17:19.783Z,6.80
2019-03-10T08:20:11.766Z,6.75
2019-03-10T08:22:51.869Z,6.77
2019-03-10T08:25:50.300Z,6.78
2019-03-10T08:28:29.712Z,6.76
2019-03-10T08:31:19.277Z,6.70
2019-03-10T08:34:18.904Z,6.65
2019-03-10T08:37:06.656Z,6.72
2019-03-10T08:40:02.045Z,6.89
2019-03-10T08:42:50.034Z,7.15
2019-03-10T08:45:44.503Z,7.45
2019-03-10T08:48:36.511Z,7.61
2019-03-10T08:51:24.386Z,7.72
2019-03-10T08:54:05.520Z,7.72
2019-03-10T08:56:57.544Z,7.89
2019-03-10T08:59:46.116Z,8.04
2019-03-10T09:02:38.692Z,7.85
2019-03-10T09:05:26.049Z,7.62
2019-03-10T09:08:13.997Z,7.51
2019-03-10T09:11:02.005Z,7.58
2019-03-10T09:13:47.240Z,7.71
2019-03-10T09:16:42.250Z,7.96
2019-03-10T09:19:18.459Z,8.00
2019-03-10T09:22:07.232Z,7.74
2019-03-10T09:24:48.165Z,7.63
2019-03-10T09:27:38.153Z,7.41
2019-03-10T09:30:26.741Z,7.33
2019-03-10T09:33:14.347Z,7.41
2019-03-10T09:35:50.715Z,7.73
2019-03-10T09:38:37.273Z,8.04
2019-03-10T09:41:35.647Z,8.54
2019-03-10T09:44:27.858Z,8.99
2019-03-10T09:47:07.535Z,9.07
2019-03-10T09:49:55.071Z,9.68
2019-03-10T09:53:02.750Z,10.48
2019-03-10T09:56:06.877Z,11.01
2019-03-10T09:59:14.161Z,10.95
2019-03-10T10:02:04.768Z,10.54
2019-03-10T10:04:56.198Z,10.80
2019-03-10T10:07:43.936Z,11.62
2019-03-10T10:10:28.425Z,12.66
2019-03-10T10:13:16.270Z,12.66
2019-03-10T10:16:14.374Z,13.52
2019-03-10T10:19:20.873Z,13.52
2019-03-10T10:22:21.917Z,13.42
2019-03-10T10:25:11.226Z,13.42
2019-03-10T10:28:09.980Z,13.49
2019-03-10T10:30:59.130Z,13.85
2019-03-10T10:33:38.480Z,13.40
2019-03-10T10:36:25.842Z,11.69
2019-03-10T10:39:18.664Z,11.69
2019-03-10T10:42:16.666Z,11.12
2019-03-10T10:45:18.840Z,10.84
2019-03-10T10:48:05.721Z,10.64
2019-03-10T10:51:01.025Z,10.44
2019-03-10T10:53:44.803Z,10.27
2019-03-10T10:56:32.208Z,9.97
2019-03-10T10:59:21.886Z,9.72
2019-03-10T11:02:11.102Z,9.62
2019-03-10T11:04:53.551Z,9.72
2019-03-10T11:07:41.611Z,10.01
2019-03-10T11:10:36.874Z,10.49
2019-03-10T11:13:26.179Z,10.64
2019-03-10T11:16:14.577Z,10.78
2019-03-10T11:19:04.466Z,10.65
2019-03-10T11:21:43.700Z,10.47
2019-03-10T11:24:21.957Z,10.29
2019-03-10T11:27:09.760Z,10.23
2019-03-10T11:30:01.612Z,10.24
2019-03-10T11:32:50.811Z,10.21
2019-03-10T11:35:29.976Z,10.30
2019-03-10T11:38:10.036Z,10.39
2019-03-10T11:40:59.421Z,10.48
2019-03-10T11:44:00.785Z,10.61
2019-03-10T11:46:49.213Z,10.96
2019-03-10T11:49:34.218Z,11.63
2019-03-10T11:52:26.482Z,11.48
2019-03-10T11:55:09.122Z,11.69
2019-03-10T11:58:01.440Z,12.05
2019-03-10T12:00:50.626Z,12.07
2019-03-10T12:03:43.279Z,11.91
2019-03-10T12:06:45.062Z,11.83
2019-03-10T12:09:21.057Z,11.69
2019-03-10T12:11:51.381Z,11.78
2019-03-10T12:14:22.482Z,11.99
2019-03-10T12:16:52.991Z,12.23
2019-03-10T12:19:23.958Z,11.68
2019-03-10T12:21:56.525Z,11.32
2019-03-10T12:24:27.228Z,11.59
2019-03-10T12:26:58.065Z,11.66
2019-03-10T12:29:28.515Z,11.76
2019-03-10T12:31:58.998Z,11.82
2019-03-10T12:34:30.242Z,11.73
2019-03-10T12:37:00.455Z,11.65
2019-03-10T12:39:31.018Z,11.50
2019-03-10T12:42:01.722Z,11.50
2019-03-10T12:44:32.119Z,11.05
2019-03-10T12:47:03.622Z,10.75
2019-03-10T12:49:33.766Z,10.61
2019-03-10T12:52:03.991Z,10.38
2019-03-10T12:54:34.595Z,10.41
2019-03-10T12:57:05.043Z,10.30
2019-03-10T12:59:35.273Z,10.37
2019-03-10T13:02:06.318Z,10.45
2019-03-10T13:04:37.210Z,10.53
2019-03-10T13:07:07.898Z,10.50
2019-03-10T13:09:38.337Z,10.43
2019-03-10T13:12:08.912Z,10.30
2019-03-10T13:14:39.165Z,10.34
2019-03-10T13:17:09.590Z,10.37
2019-03-10T13:19:39.841Z,10.44
2019-03-10T13:22:10.359Z,10.35
2019-03-10T13:24:40.590Z,10.47
2019-03-10T13:27:11.112Z,10.43
2019-03-10T13:29:41.772Z,10.26
2019-03-10T13:32:12.761Z,10.11
2019-03-10T13:34:42.940Z,9.97
2019-03-10T13:37:13.166Z,9.87
2019-03-10T13:39:43.359Z,9.54
2019-03-10T13:42:13.577Z,9.54
2019-03-10T13:44:43.850Z,9.56
2019-03-10T13:47:14.400Z,9.58
2019-03-10T13:49:44.588Z,9.52
2019-03-10T13:52:15.362Z,9.39
2019-03-10T13:54:45.531Z,9.30
2019-03-10T13:57:15.777Z,9.25
2019-03-10T13:59:46.144Z,9.24
2019-03-10T14:02:17.044Z,9.29
2019-03-10T14:04:47.755Z,9.37
2019-03-10T14:07:17.962Z,9.33
2019-03-10T14:09:49.100Z,9.18
2019-03-10T14:12:19.365Z,9.05
2019-03-10T14:14:49.894Z,8.95
2019-03-10T14:17:20.195Z,8.90
2019-03-10T14:19:50.737Z,8.84
2019-03-10T14:22:21.887Z,8.77
2019-03-10T14:24:52.035Z,8.76
2019-03-10T14:27:22.509Z,8.81
2019-03-10T14:29:52.998Z,8.80
2019-03-10T14:32:23.167Z,8.73
2019-03-10T14:34:53.684Z,8.66
2019-03-10T14:37:23.898Z,8.58
2019-03-10T14:39:54.116Z,8.55
2019-03-10T14:42:24.951Z,8.53
2019-03-10T14:44:55.807Z,8.50
2019-03-10T14:47:26.018Z,8.43
2019-03-10T14:49:56.834Z,8.35
2019-03-10T14:52:30.076Z,8.33
2019-03-10T14:55:00.605Z,8.32
2019-03-10T14:57:30.702Z,8.23
2019-03-10T15:00:01.054Z,8.08
2019-03-10T15:02:31.230Z,8.09
2019-03-10T15:05:01.398Z,8.05
2019-03-10T15:07:31.930Z,8.04
2019-03-10T15:10:02.437Z,8.00
2019-03-10T15:12:32.983Z,8.01
2019-03-10T15:15:03.252Z,8.02
2019-03-10T15:17:33.856Z,7.96
2019-03-10T15:20:04.091Z,7.88
2019-03-10T15:22:34.423Z,7.92
2019-03-10T15:25:05.341Z,7.92
2019-03-10T15:27:35.664Z,7.86
2019-03-10T15:30:07.635Z,7.74
2019-03-10T15:32:37.828Z,7.77
2019-03-10T15:35:08.355Z,7.77
2019-03-10T15:37:38.920Z,7.80
2019-03-10T15:40:10.751Z,7.76
2019-03-10T15:42:41.100Z,7.74
2019-03-10T15:45:12.204Z,7.73
2019-03-10T15:47:42.517Z,7.74
2019-03-10T15:50:23.630Z,7.70
2019-03-10T15:52:53.845Z,7.75
2019-03-10T15:55:24.523Z,7.78
2019-03-10T15:57:54.747Z,7.76
2019-03-10T16:00:25.119Z,7.72
2019-03-10T16:02:55.450Z,7.69
2019-03-10T16:05:26.073Z,7.69
2019-03-10T16:07:56.252Z,7.55
2019-03-10T16:10:26.785Z,7.59
2019-03-10T16:12:57.530Z,7.59
2019-03-10T16:15:27.910Z,7.60
2019-03-10T16:17:58.414Z,7.58
2019-03-10T16:20:29.003Z,7.48
2019-03-10T16:23:00.531Z,7.37
2019-03-10T16:25:33.037Z,7.27
2019-03-10T16:28:04.489Z,7.19
2019-03-10T16:30:37.529Z,7.15
2019-03-10T16:33:07.765Z,7.06
2019-03-10T16:35:42.733Z,7.02
2019-03-10T16:38:12.290Z,6.97
2019-03-10T16:40:43.226Z,6.94
2019-03-10T16:43:24.989Z,6.88
2019-03-10T16:45:51.516Z,6.80
2019-03-10T16:48:26.002Z,6.78
2019-03-10T16:51:01.234Z,6.78
2019-03-10T16:53:33.951Z,6.68
2019-03-10T16:56:06.254Z,6.68
2019-03-10T16:58:39.866Z,6.64
2019-03-10T17:01:15.575Z,6.62
2019-03-10T17:03:49.359Z,6.60
2019-03-10T17:06:22.690Z,6.51
2019-03-10T17:08:57.896Z,6.47
2019-03-10T17:11:30.337Z,6.45
2019-03-10T17:14:09.790Z,6.41
2019-03-10T17:16:43.028Z,6.38
2019-03-10T17:19:13.737Z,6.36
2019-03-10T17:21:45.107Z,6.28
2019-03-10T17:24:19.452Z,6.27
2019-03-10T17:26:50.998Z,6.25
2019-03-10T17:29:22.859Z,6.24
2019-03-10T17:31:53.444Z,6.15
2019-03-10T17:34:26.872Z,6.15
2019-03-10T17:36:57.091Z,6.13
2019-03-10T17:39:27.615Z,6.10
2019-03-10T17:41:58.869Z,6.08
2019-03-10T17:44:40.358Z,6.02
2019-03-10T17:47:03.816Z,5.95
2019-03-10T17:49:35.549Z,5.93
2019-03-10T17:52:14.399Z,5.89
2019-03-10T17:54:39.645Z,5.87
2019-03-10T17:57:09.877Z,5.87
2019-03-10T17:59:40.194Z,5.80
2019-03-10T18:02:10.688Z,5.80
2019-03-10T18:04:41.150Z,5.76
2019-03-10T18:07:13.207Z,5.78
2019-03-10T18:09:43.772Z,5.79
2019-03-10T18:12:14.169Z,5.79
2019-03-10T18:14:44.603Z,5.83
2019-03-10T18:17:16.295Z,5.80
2019-03-10T18:19:46.568Z,5.80
2019-03-10T18:22:18.236Z,5.75
2019-03-10T18:24:48.567Z,5.70
2019-03-10T18:27:22.180Z,5.67
2019-03-10T18:29:52.962Z,5.65
2019-03-10T18:32:23.212Z,5.65
2019-03-10T18:34:55.061Z,5.63
2019-03-10T18:37:26.062Z,5.56
2019-03-10T18:39:56.879Z,5.50
2019-03-10T18:42:27.595Z,5.44
2019-03-10T18:44:57.926Z,5.43
2019-03-10T18:47:28.158Z,5.37
2019-03-10T18:49:59.070Z,5.33
2019-03-10T18:52:29.557Z,5.34
2019-03-10T18:55:00.435Z,5.36
2019-03-10T18:57:31.078Z,5.35
2019-03-10T19:00:02.978Z,5.26
2019-03-10T19:02:33.472Z,5.30
2019-03-10T19:05:04.074Z,5.26
2019-03-10T19:07:34.437Z,5.20
2019-03-10T19:10:08.949Z,5.17
2019-03-10T19:12:39.540Z,5.15
2019-03-10T19:15:11.862Z,5.16
2019-03-10T19:17:42.089Z,5.13
2019-03-10T19:20:13.962Z,5.03
2019-03-10T19:22:45.263Z,5.05
2019-03-10T19:25:16.174Z,5.03
2019-03-10T19:27:47.780Z,5.04
2019-03-10T19:30:18.987Z,5.08
2019-03-10T19:32:50.193Z,5.05
2019-03-10T19:35:21.920Z,5.02
2019-03-10T19:37:52.635Z,5.03
2019-03-10T19:40:23.737Z,4.99
2019-03-10T19:42:54.563Z,5.02
2019-03-10T19:45:28.486Z,5.03
2019-03-10T19:47:59.688Z,5.02
2019-03-10T19:50:35.998Z,5.01
2019-03-10T19:53:08.186Z,4.97
2019-03-10T19:55:42.666Z,4.97
2019-03-10T19:58:13.404Z,4.97
2019-03-10T20:00:44.289Z,4.95
2019-03-10T20:03:14.554Z,4.94
2019-03-10T20:05:45.998Z,4.92
2019-03-10T20:08:18.185Z,4.90
2019-03-10T20:10:50.340Z,4.86
2019-03-10T20:13:21.288Z,4.81
2019-03-10T20:15:54.152Z,4.76
2019-03-10T20:18:25.455Z,4.70
2019-03-10T20:20:59.223Z,4.71
2019-03-10T20:23:30.848Z,4.68
2019-03-10T20:26:02.023Z,4.65
2019-03-10T20:28:34.506Z,4.64
2019-03-10T20:31:07.963Z,4.60
2019-03-10T20:33:42.818Z,4.60
2019-03-10T20:36:17.068Z,4.59
2019-03-10T20:38:48.387Z,4.57
2019-03-10T20:41:45.130Z,4.50
2019-03-10T20:44:26.225Z,4.53
2019-03-10T20:47:08.936Z,4.52
2019-03-10T20:49:49.861Z,4.52
2019-03-10T20:52:28.967Z,4.52
2019-03-10T20:55:24.343Z,4.51
2019-03-10T20:57:59.513Z,4.47
2019-03-10T21:00:34.908Z,4.42
2019-03-10T21:03:16.648Z,4.41
2019-03-10T21:05:50.459Z,4.39
2019-03-10T21:08:24.125Z,4.35
2019-03-10T21:10:57.086Z,4.31
2019-03-10T21:13:35.844Z,4.29
2019-03-10T21:16:10.872Z,4.26
2019-03-10T21:18:40.822Z,4.21
2019-03-10T21:21:12.070Z,4.16
2019-03-10T21:23:45.199Z,4.16
2019-03-10T21:26:16.678Z,4.16
2019-03-10T21:28:48.148Z,4.14
2019-03-10T21:31:19.599Z,4.13
2019-03-10T21:33:50.434Z,4.12
2019-03-10T21:36:23.766Z,4.12
2019-03-10T21:38:59.769Z,4.11
2019-03-10T21:41:31.035Z,4.14
2019-03-10T21:44:02.786Z,4.15
2019-03-10T21:46:33.695Z,4.17
2019-03-10T21:49:10.290Z,4.18
2019-03-10T21:51:40.810Z,4.17
2019-03-10T21:54:12.680Z,4.18
2019-03-10T21:56:46.513Z,4.15
2019-03-10T21:59:18.170Z,4.17
2019-03-10T22:01:54.005Z,4.16
2019-03-10T22:04:29.890Z,4.16
2019-03-10T22:07:00.820Z,4.15
2019-03-10T22:09:31.313Z,4.15
2019-03-10T22:12:07.182Z,4.12
2019-03-10T22:14:40.193Z,4.10
2019-03-10T22:17:16.550Z,4.10
2019-03-10T22:19:48.761Z,4.10
2019-03-10T22:22:22.508Z,4.10
2019-03-10T22:24:53.813Z,4.10
2019-03-10T22:27:27.253Z,4.05
2019-03-10T22:29:59.601Z,4.05
2019-03-10T22:32:34.231Z,4.01
2019-03-10T22:35:05.158Z,3.98
2019-03-10T22:37:35.679Z,3.93
2019-03-10T22:40:10.981Z,3.87
2019-03-10T22:42:42.000Z,3.85
2019-03-10T22:45:13.646Z,3.83
2019-03-10T22:47:44.323Z,3.80
2019-03-10T22:50:15.205Z,3.80
2019-03-10T22:52:48.736Z,3.80
2019-03-10T22:55:24.565Z,3.79
2019-03-10T22:57:59.606Z,3.80
2019-03-10T23:00:49.305Z,3.82
2019-03-10T23:03:20.620Z,3.84
2019-03-10T23:05:53.267Z,3.87
2019-03-10T23:08:24.738Z,3.90
2019-03-10T23:10:56.475Z,3.93
2019-03-10T23:13:26.736Z,3.95
2019-03-10T23:15:57.329Z,3.97
2019-03-10T23:18:28.214Z,4.01
2019-03-10T23:20:59.646Z,4.08
2019-03-10T23:23:35.550Z,4.14
2019-03-10T23:26:06.603Z,4.17
2019-03-10T23:28:37.292Z,4.24
2019-03-10T23:31:07.780Z,4.29
2019-03-10T23:33:44.208Z,4.37
2019-03-10T23:36:15.741Z,4.42
2019-03-10T23:38:46.101Z,4.43
2019-03-10T23:41:16.392Z,4.42
2019-03-10T23:43:47.312Z,4.44
2019-03-10T23:46:18.958Z,4.45
2019-03-10T23:48:49.200Z,4.47
2019-03-10T23:51:19.717Z,4.47
2019-03-10T23:53:50.095Z,4.42
2019-03-10T23:56:20.362Z,4.44
2019-03-10T23:58:50.841Z,4.48
